Time;durP1;ratioP1;P1;durP2;ratioP2;P2;SDS_P1;SDS_P2;PMS_P1;PMS_P2;Temp;Humidity;BMP_temperature;BMP_pressure;BME280_temperature;BME280_humidity;BME280_pressure;Samples;Min_cycle;Max_cycle;Signal;HPM_P1;HPM_P2
2023/08/23 00:00:24;;;;;;;0.30;0.30;;;;;;;21.53;73.54;97193.75;29395;197;63005;-93
2023/08/23 00:00:56;;;;;;;0.37;0.37;;;;;;;21.51;73.95;97193.31;29395;207;63009;-91
2023/08/23 00:01:28;;;;;;;0.40;0.40;;;;;;;21.50;74.33;97197.25;29394;221;64009;-90
2023/08/23 00:02:01;;;;;;;0.30;0.30;;;;;;;21.48;74.22;97192.09;29395;245;63009;-91
2023/08/23 00:02:34;;;;;;;0.30;0.30;;;;;;;21.46;74.25;97193.63;29395;234;63004;-90
2023/08/23 00:03:08;;;;;;;0.30;0.30;;;;;;;21.46;73.99;97193.63;29395;231;63009;-91
2023/08/23 00:03:39;;;;;;;0.30;0.30;;;;;;;21.46;73.80;97199.13;29394;250;64009;-92
2023/08/23 00:04:10;;;;;;;0.30;0.30;;;;;;;21.46;74.66;97199.13;29395;210;63008;-92
2023/08/23 00:04:41;;;;;;;0.40;0.40;;;;;;;21.45;74.21;97189.25;29395;240;63005;-90
2023/08/23 00:05:21;;;;;;;0.40;0.40;;;;;;;21.45;74.09;97197.53;29395;197;63009;-92
2023/08/23 00:05:54;;;;;;;0.40;0.40;;;;;;;21.45;74.04;97198.34;29395;247;63005;-92
2023/08/23 00:06:26;;;;;;;0.40;0.40;;;;;;;21.43;73.88;97197.09;29395;202;63009;-92
2023/08/23 00:06:57;;;;;;;0.30;0.30;;;;;;;21.40;74.14;97190.31;29395;216;63005;-91
2023/08/23 00:07:30;;;;;;;0.40;0.40;;;;;;;21.40;74.01;97191.13;29394;245;64009;-93
2023/08/23 00:08:01;;;;;;;0.30;0.30;;;;;;;21.39;73.98;97195.03;29395;209;63005;-91
2023/08/23 00:08:32;;;;;;;0.40;0.40;;;;;;;21.39;74.16;97195.03;29395;205;63009;-91
2023/08/23 00:09:10;;;;;;;0.40;0.40;;;;;;;21.35;74.34;97194.13;29394;257;64009;-92
2023/08/23 00:09:41;;;;;;;0.30;0.30;;;;;;;21.34;74.22;97198.06;29395;270;63009;-93
2023/08/23 00:10:14;;;;;;;0.40;0.40;;;;;;;21.33;74.30;97192.88;29395;247;63004;-92
2023/08/23 00:10:53;;;;;;;0.40;0.40;;;;;;;21.33;74.79;97195.66;29396;219;63009;-91
2023/08/23 00:11:27;;;;;;;0.40;0.40;;;;;;;21.32;75.40;97194.84;29396;293;63004;-92
2023/08/23 00:11:58;;;;;;;0.40;0.40;;;;;;;21.30;74.98;97188.87;29396;231;63014;-93
2023/08/23 00:12:33;;;;;;;0.30;0.30;;;;;;;21.30;75.20;97194.41;29396;204;63005;-90
2023/08/23 00:13:04;;;;;;;0.30;0.30;;;;;;;21.30;75.07;97190.84;29396;203;63009;-91
2023/08/23 00:13:37;;;;;;;0.30;0.30;;;;;;;21.28;74.93;97187.63;29396;218;63005;-92
2023/08/23 00:14:10;;;;;;;0.30;0.30;;;;;;;21.29;74.64;97190.03;29395;204;64013;-93
2023/08/23 00:14:43;;;;;;;0.30;0.30;;;;;;;21.30;74.85;97186.13;29395;254;64005;-90
2023/08/23 00:15:16;;;;;;;0.30;0.30;;;;;;;21.31;74.58;97181.41;29396;206;63019;-90
2023/08/23 00:15:52;;;;;;;0.37;0.37;;;;;;;21.32;74.44;97185.75;29396;220;63000;-92
2023/08/23 00:16:25;;;;;;;0.30;0.30;;;;;;;21.34;74.28;97188.97;29396;286;63009;-91
2023/08/23 00:16:57;;;;;;;0.30;0.30;;;;;;;21.33;74.06;97179.88;29396;215;63004;-90
2023/08/23 00:17:29;;;;;;;0.35;0.35;;;;;;;21.35;73.95;97187.81;29396;229;63009;-92
2023/08/23 00:18:00;;;;;;;0.40;0.40;;;;;;;21.35;74.20;97177.56;29396;198;63004;-89
2023/08/23 00:18:35;;;;;;;0.30;0.30;;;;;;;21.35;74.05;97177.56;29396;246;63009;-91
2023/08/23 00:19:07;;;;;;;0.30;0.30;;;;;;;21.36;73.80;97173.66;29396;220;63004;-91
2023/08/23 00:19:43;;;;;;;0.30;0.30;;;;;;;21.37;73.81;97183.53;29395;210;64013;-90
2023/08/23 00:20:16;;;;;;;0.30;0.30;;;;;;;21.38;73.92;97176.88;29396;282;63005;-91
2023/08/23 00:20:47;;;;;;;0.30;0.30;;;;;;;21.36;73.73;97172.84;29396;216;63009;-91
2023/08/23 00:21:24;;;;;;;0.30;0.30;;;;;;;21.33;74.57;97174.38;29396;225;63005;-93
2023/08/23 00:22:10;;;;;;;;;;;;;;;;;;;;;
2023/08/23 00:22:42;;;;;;;0.35;0.35;;;;;;;21.29;74.70;97178.19;29396;260;63005;-90
2023/08/23 00:23:13;;;;;;;0.30;0.30;;;;;;;21.28;74.77;97169.09;29396;218;63009;-91
2023/08/23 00:23:46;;;;;;;0.30;0.30;;;;;;;21.29;74.72;97170.72;29396;225;63005;-89
2023/08/23 00:24:20;;;;;;;0.30;0.30;;;;;;;21.29;74.72;97176.22;29396;232;63009;-90
2023/08/23 00:24:51;;;;;;;0.30;0.30;;;;;;;21.28;74.57;97169.09;29395;218;64009;-90
2023/08/23 00:25:23;;;;;;;0.40;0.40;;;;;;;21.28;75.06;97176.59;29396;304;63009;-93
2023/08/23 00:25:54;;;;;;;0.30;0.30;;;;;;;21.27;75.24;97173.03;29396;226;63004;-91
2023/08/23 00:26:25;;;;;;;0.40;0.40;;;;;;;21.25;75.09;97169.81;29396;213;63008;-91
2023/08/23 00:26:59;;;;;;;0.30;0.30;;;;;;;21.27;74.92;97173.03;29396;299;63004;-91
2023/08/23 00:27:33;;;;;;;0.30;0.30;;;;;;;21.27;75.07;97167.50;29396;209;63009;-91
2023/08/23 00:28:07;;;;;;;0.32;0.32;;;;;;;21.28;74.60;97169.09;29396;199;63005;-91
2023/08/23 00:28:42;;;;;;;0.30;0.30;;;;;;;21.29;74.48;97173.47;29396;209;63009;-91
2023/08/23 00:29:14;;;;;;;0.30;0.30;;;;;;;21.30;74.28;97172.31;29396;231;63005;-91
2023/08/23 00:29:47;;;;;;;0.30;0.30;;;;;;;21.27;75.55;97169.47;29395;222;64013;-90
2023/08/23 00:30:20;;;;;;;0.30;0.30;;;;;;;21.24;75.39;97170.16;29396;204;63008;-92
2023/08/23 00:30:53;;;;;;;0.30;0.30;;;;;;;21.21;75.34;97171.69;29396;202;63009;-90
2023/08/23 00:31:26;;;;;;;0.30;0.30;;;;;;;21.19;75.27;97162.91;29396;263;63004;-90
2023/08/23 00:31:57;;;;;;;0.30;0.30;;;;;;;21.19;75.08;97173.97;29396;231;63016;-90
2023/08/23 00:32:28;;;;;;;0.30;0.30;;;;;;;21.20;75.61;97164.53;29396;239;63004;-90
2023/08/23 00:33:02;;;;;;;0.30;0.30;;;;;;;21.19;75.70;97173.97;29395;229;64013;-91
2023/08/23 00:33:35;;;;;;;0.30;0.30;;;;;;;21.19;76.44;97173.16;29396;236;63004;-91
2023/08/23 00:34:06;;;;;;;0.30;0.30;;;;;;;21.17;75.51;97176.28;29396;264;63008;-91
2023/08/23 00:34:38;;;;;;;0.30;0.30;;;;;;;21.16;75.72;97179.38;29396;222;63004;-90
2023/08/23 00:35:09;;;;;;;0.30;0.30;;;;;;;21.17;75.59;97178.22;29396;211;63009;-90
2023/08/23 00:35:41;;;;;;;0.40;0.40;;;;;;;21.17;75.35;97181.00;29396;219;63005;-89
2023/08/23 00:36:15;;;;;;;0.30;0.30;;;;;;;21.17;75.24;97179.03;29396;197;63009;-91
2023/08/23 00:36:46;;;;;;;0.30;0.30;;;;;;;21.16;75.89;97176.62;29395;221;64009;-89
2023/08/23 00:37:20;;;;;;;0.30;0.30;;;;;;;21.15;76.19;97178.59;29396;262;63009;-91
2023/08/23 00:37:54;;;;;;;0.30;0.30;;;;;;;21.14;76.45;97174.22;29396;280;63005;-90
2023/08/23 00:38:25;;;;;;;0.30;0.30;;;;;;;21.13;75.72;97186.44;29396;204;63009;-90
2023/08/23 00:38:59;;;;;;;0.30;0.30;;;;;;;21.13;75.90;97171.84;29396;196;63004;-92
2023/08/23 00:39:33;;;;;;;0.37;0.37;;;;;;;21.13;76.07;97177.34;29396;294;63009;-91
2023/08/23 00:40:10;;;;;;;0.40;0.40;;;;;;;21.11;75.78;97174.97;29395;242;64009;-92
2023/08/23 00:40:43;;;;;;;0.30;0.30;;;;;;;21.13;75.81;97180.13;29396;221;63009;-90
2023/08/23 00:41:14;;;;;;;0.32;0.32;;;;;;;21.12;75.60;97179.31;29396;213;63004;-92
2023/08/23 00:41:48;;;;;;;0.32;0.32;;;;;;;21.13;75.79;97180.13;29396;265;63008;-90
2023/08/23 00:42:24;;;;;;;0.30;0.30;;;;;;;21.13;75.70;97175.41;29396;219;63001;-91
2023/08/23 00:42:55;;;;;;;0.40;0.40;;;;;;;21.13;75.47;97178.16;29396;202;63009;-92
2023/08/23 00:43:27;;;;;;;0.30;0.30;;;;;;;21.14;75.24;97170.69;29396;200;63005;-91
2023/08/23 00:43:58;;;;;;;0.30;0.30;;;;;;;21.14;75.65;97167.94;29395;207;64013;-91
2023/08/23 00:44:29;;;;;;;0.30;0.30;;;;;;;21.11;75.99;97166.69;29396;226;63015;-90
2023/08/23 00:45:03;;;;;;;0.30;0.30;;;;;;;21.07;76.77;97171.28;29396;258;63009;-92
2023/08/23 00:45:37;;;;;;;0.40;0.40;;;;;;;21.03;77.03;97167.63;29396;197;63007;-89
2023/08/23 00:46:10;;;;;;;0.40;0.40;;;;;;;21.00;77.09;97171.09;29396;251;63009;-89
2023/08/23 00:46:45;;;;;;;0.30;0.30;;;;;;;20.98;76.86;97165.13;29395;298;64009;-90
2023/08/23 00:47:16;;;;;;;0.30;0.30;;;;;;;20.96;76.85;97165.50;29396;301;63009;-90
2023/08/23 00:47:51;;;;;;;0.30;0.30;;;;;;;20.95;77.43;97169.41;29396;219;63004;-91
2023/08/23 00:48:23;;;;;;;0.30;0.30;;;;;;;20.96;76.69;97164.69;29396;215;63014;-89
2023/08/23 00:48:56;;;;;;;0.30;0.30;;;;;;;20.95;76.77;97163.09;29396;240;63004;-93
2023/08/23 00:49:33;;;;;;;0.30;0.30;;;;;;;20.96;76.76;97159.16;29396;244;63008;-91
2023/08/23 00:50:08;;;;;;;0.30;0.30;;;;;;;20.94;77.09;97167.78;29395;250;64001;-91
2023/08/23 00:50:43;;;;;;;0.30;0.30;;;;;;;20.93;77.16;97170.91;29395;245;64014;-91
2023/08/23 00:51:19;;;;;;;0.30;0.30;;;;;;;20.91;77.90;97162.97;29396;212;63005;-92
2023/08/23 00:51:53;;;;;;;0.30;0.30;;;;;;;20.89;78.00;97164.50;29396;227;63009;-92
2023/08/23 00:52:27;;;;;;;0.30;0.30;;;;;;;20.84;78.30;97168.31;29396;243;63005;-92
2023/08/23 00:53:02;;;;;;;0.50;0.50;;;;;;;20.82;78.29;97167.06;29396;243;63009;-91
2023/08/23 00:53:35;;;;;;;0.30;0.30;;;;;;;20.80;78.42;97161.09;29396;217;64009;-91
2023/08/23 00:54:09;;;;;;;0.30;0.30;;;;;;;20.78;78.76;97163.41;29397;220;63009;-91
2023/08/23 00:54:43;;;;;;;0.30;0.30;;;;;;;20.76;78.59;97166.53;29397;222;63004;-91
2023/08/23 00:55:16;;;;;;;0.30;0.30;;;;;;;20.74;78.64;97163.31;29397;313;63009;-90
2023/08/23 00:55:49;;;;;;;0.30;0.30;;;;;;;20.73;79.37;97168.03;29397;272;63004;-91
2023/08/23 00:56:23;;;;;;;0.30;0.30;;;;;;;20.73;78.42;97159.75;29397;202;63008;-90
2023/08/23 00:57:01;;;;;;;0.30;0.30;;;;;;;20.73;78.41;97157.00;29397;202;63005;-91
2023/08/23 00:57:34;;;;;;;0.30;0.30;;;;;;;20.75;78.35;97153.91;29397;200;63009;-91
2023/08/23 00:58:12;;;;;;;0.30;0.30;;;;;;;20.77;77.80;97154.34;29396;217;64009;-91
2023/08/23 00:58:44;;;;;;;0.40;0.40;;;;;;;20.79;77.91;97156.75;29397;209;63009;-91
2023/08/23 00:59:18;;;;;;;0.30;0.30;;;;;;;20.77;77.73;97159.06;29397;220;63005;-91
2023/08/23 00:59:50;;;;;;;0.30;0.30;;;;;;;20.77;77.50;97151.59;29397;226;63009;-90
2023/08/23 01:00:24;;;;;;;0.30;0.30;;;;;;;20.76;77.67;97155.50;29397;250;63005;-91
2023/08/23 01:01:00;;;;;;;0.30;0.30;;;;;;;20.75;78.35;97153.91;29397;227;63025;-91
2023/08/23 01:01:31;;;;;;;0.30;0.30;;;;;;;20.72;78.24;97149.87;29397;198;63008;-91
2023/08/23 01:02:05;;;;;;;0.35;0.35;;;;;;;20.72;78.52;97149.09;29396;210;64013;-90
2023/08/23 01:02:39;;;;;;;0.30;0.30;;;;;;;20.71;79.21;97156.56;29397;206;63004;-90
2023/08/23 01:03:10;;;;;;;0.30;0.30;;;;;;;20.70;79.12;97162.41;29397;222;63009;-91
2023/08/23 01:03:42;;;;;;;0.30;0.30;;;;;;;20.69;78.50;97158.06;29397;222;63004;-89
2023/08/23 01:04:14;;;;;;;0.30;0.30;;;;;;;20.69;78.68;97155.31;29397;206;63009;-92
2023/08/23 01:04:49;;;;;;;0.30;0.30;;;;;;;20.68;78.94;97157.25;29397;237;63005;-91
2023/08/23 01:05:57;;;;;;;0.30;0.30;;;;;;;20.66;78.49;97156.81;29395;234;64014;-92
2023/08/23 01:06:55;;;;;;;0.30;0.30;;;;;;;20.66;79.00;97159.56;29397;222;63005;-93
2023/08/23 01:07:39;;;;;;;0.30;0.30;;;;;;;20.65;79.23;97157.94;29395;275;64009;-91
2023/08/23 01:08:53;;;;;;;0.30;0.30;;;;;;;20.65;79.27;97159.91;29397;237;63009;-91
2023/08/23 01:10:10;;;;;;;0.30;0.30;;;;;;;20.55;78.95;97155.69;29395;218;64009;-90
2023/08/23 01:10:59;;;;;;;0.30;0.30;;;;;;;20.57;80.33;97158.09;29396;212;63009;-92
2023/08/23 01:11:54;;;;;;;0.30;0.30;;;;;;;20.50;80.25;97158.69;29396;202;63004;-90
2023/08/23 01:12:44;;;;;;;0.30;0.30;;;;;;;20.47;80.01;97158.59;29396;261;63009;-92
2023/08/23 01:13:47;;;;;;;0.30;0.30;;;;;;;20.47;80.14;97159.41;29396;294;63011;-90
2023/08/23 01:14:56;;;;;;;0.30;0.30;;;;;;;20.46;80.55;97163.31;29395;213;64013;-90
2023/08/23 01:15:34;;;;;;;0.30;0.30;;;;;;;20.45;81.12;97158.94;29396;222;63011;-92
2023/08/23 01:16:09;;;;;;;0.30;0.30;;;;;;;20.43;81.34;97164.03;29396;286;63004;-89
2023/08/23 01:16:47;;;;;;;0.30;0.30;;;;;;;20.43;81.05;97164.03;29395;300;64013;-91
2023/08/23 01:17:21;;;;;;;0.40;0.40;;;;;;;20.43;80.33;97163.22;29396;226;63004;-91
2023/08/23 01:17:58;;;;;;;0.30;0.30;;;;;;;20.43;80.25;97168.75;29396;274;63009;-90
2023/08/23 01:18:31;;;;;;;0.30;0.30;;;;;;;20.44;79.75;97164.84;29396;311;63004;-89
2023/08/23 01:19:44;;;;;;;0.30;0.30;;;;;;;20.40;79.47;97157.25;29395;227;64013;-90
2023/08/23 01:20:20;;;;;;;0.30;0.30;;;;;;;20.46;79.84;97168.81;29395;206;64009;-90
2023/08/23 01:20:54;;;;;;;0.30;0.30;;;;;;;20.46;79.81;97171.56;29396;200;63009;-91
2023/08/23 01:21:42;;;;;;;0.30;0.30;;;;;;;20.45;79.90;97171.91;29396;225;63005;-91
2023/08/23 01:22:23;;;;;;;0.30;0.30;;;;;;;20.43;81.13;97174.25;29395;283;64013;-90
2023/08/23 01:23:31;;;;;;;0.30;0.30;;;;;;;20.39;81.43;97174.16;29396;301;63014;-91
2023/08/23 01:24:11;;;;;;;0.30;0.30;;;;;;;20.37;81.40;97166.22;29396;248;63009;-90
2023/08/23 01:24:44;;;;;;;0.30;0.30;;;;;;;20.36;81.22;97174.81;29395;230;64009;-91
2023/08/23 01:25:17;;;;;;;0.30;0.30;;;;;;;20.38;80.95;97169.78;29396;196;63009;-91
2023/08/23 01:25:54;;;;;;;0.32;0.32;;;;;;;20.39;80.61;97174.94;29396;196;63004;-91
2023/08/23 01:26:25;;;;;;;0.30;0.30;;;;;;;20.40;80.41;97175.75;29396;231;63008;-90
2023/08/23 01:26:56;;;;;;;0.30;0.30;;;;;;;20.39;81.27;97169.44;29395;301;64009;-93
2023/08/23 01:27:32;;;;;;;0.30;0.30;;;;;;;20.38;81.06;97173.34;29396;219;63009;-93
2023/08/23 01:28:08;;;;;;;0.30;0.30;;;;;;;20.37;80.89;97177.25;29396;203;63005;-92
2023/08/23 01:28:39;;;;;;;0.30;0.30;;;;;;;20.38;81.33;97175.28;29396;225;63009;-91
2023/08/23 01:29:12;;;;;;;0.30;0.30;;;;;;;20.36;80.73;97174.81;29396;197;63005;-91
2023/08/23 01:29:46;;;;;;;0.30;0.30;;;;;;;20.35;80.76;97173.19;29396;299;63009;-91
2023/08/23 01:30:21;;;;;;;0.30;0.30;;;;;;;20.33;80.54;97176.31;29396;249;63005;-92
2023/08/23 01:30:59;;;;;;;0.30;0.30;;;;;;;20.31;81.46;97177.81;29396;199;63009;-91
2023/08/23 01:31:38;;;;;;;0.30;0.30;;;;;;;20.31;81.03;97173.09;29395;215;63999;-90
2023/08/23 01:32:39;;;;;;;0.30;0.30;;;;;;;20.32;80.75;97173.91;29396;210;63009;-92
2023/08/23 01:33:26;;;;;;;0.30;0.30;;;;;;;20.33;80.67;97175.50;29397;221;63000;-91
2023/08/23 01:34:10;;;;;;;0.40;0.40;;;;;;;20.34;80.58;97177.09;29396;218;63008;-92
2023/08/23 01:34:53;;;;;;;0.30;0.30;;;;;;;20.37;80.39;97173.66;29396;207;63005;-92
2023/08/23 01:35:48;;;;;;;0.30;0.30;;;;;;;20.38;80.20;97175.28;29396;200;63009;-91
2023/08/23 01:36:32;;;;;;;0.30;0.30;;;;;;;20.36;81.67;97175.63;29395;204;64013;-92
2023/08/23 01:37:06;;;;;;;0.35;0.35;;;;;;;20.32;81.78;97168.38;29395;202;64020;-90
2023/08/23 01:37:41;;;;;;;0.40;0.40;;;;;;;20.28;81.64;97175.75;29396;240;63009;-92
2023/08/23 01:38:16;;;;;;;0.37;0.37;;;;;;;20.27;82.42;97171.38;29396;202;63005;-92
2023/08/23 01:38:51;;;;;;;0.30;0.30;;;;;;;20.23;82.15;97170.47;29395;241;64013;-91
2023/08/23 01:39:26;;;;;;;0.32;0.32;;;;;;;20.21;81.77;97173.56;29396;196;63004;-91
2023/08/23 01:40:02;;;;;;;0.40;0.40;;;;;;;20.21;82.09;97172.78;29396;196;63016;-91
2023/08/23 01:40:36;;;;;;;0.60;0.60;;;;;;;20.18;82.22;97173.47;29395;196;64004;-91
2023/08/23 01:41:07;;;;;;;0.30;0.30;;;;;;;20.17;82.40;97172.66;29396;238;63008;-92
2023/08/23 01:41:40;;;;;;;0.37;0.37;;;;;;;20.18;81.92;97176.22;29396;203;63004;-89
2023/08/23 01:42:13;;;;;;;0.30;0.30;;;;;;;20.20;82.40;97173.94;29396;284;63009;-91
2023/08/23 01:42:47;;;;;;;0.30;0.30;;;;;;;20.18;81.72;97171.50;29395;213;64009;-90
2023/08/23 01:43:19;;;;;;;0.40;0.40;;;;;;;20.20;81.56;97171.97;29396;222;63009;-93
2023/08/23 01:43:53;;;;;;;0.40;0.40;;;;;;;20.22;81.27;97166.13;29396;246;63005;-94
2023/08/23 01:44:27;;;;;;;0.40;0.40;;;;;;;20.24;81.31;97174.84;29396;202;63009;-92
2023/08/23 01:44:58;;;;;;;0.35;0.35;;;;;;;20.25;81.30;97173.69;29396;205;63005;-93
2023/08/23 01:45:31;;;;;;;0.40;0.40;;;;;;;20.24;81.85;97174.84;29396;216;63009;-91
2023/08/23 01:46:03;;;;;;;0.40;0.40;;;;;;;20.23;82.19;97174.03;29395;251;64009;-90
2023/08/23 01:46:35;;;;;;;0.32;0.32;;;;;;;20.21;81.73;97170.81;29396;199;63009;-90
2023/08/23 01:47:10;;;;;;;0.30;0.30;;;;;;;20.20;81.84;97174.72;29396;232;63011;-90
2023/08/23 01:47:41;;;;;;;0.30;0.30;;;;;;;20.20;82.21;97168.41;29396;220;63009;-92
2023/08/23 01:48:13;;;;;;;0.40;0.40;;;;;;;20.20;82.70;97171.16;29396;218;63004;-90
2023/08/23 01:48:44;;;;;;;0.40;0.40;;;;;;;20.18;83.02;97179.78;29396;199;63008;-90
2023/08/23 01:49:18;;;;;;;0.40;0.40;;;;;;;20.18;82.94;97176.22;29396;218;63007;-90
2023/08/23 01:49:52;;;;;;;0.40;0.40;;;;;;;20.17;82.95;97171.88;29395;213;64014;-91
2023/08/23 01:50:24;;;;;;;0.40;0.40;;;;;;;20.16;82.72;97170.25;29396;256;63005;-93
2023/08/23 01:50:57;;;;;;;0.30;0.30;;;;;;;20.17;82.48;97174.63;29396;248;63009;-92
2023/08/23 01:51:30;;;;;;;0.40;0.40;;;;;;;20.16;82.32;97173.81;29396;223;63005;-91
2023/08/23 01:52:03;;;;;;;0.40;0.40;;;;;;;20.17;82.38;97169.91;29396;200;63009;-91
2023/08/23 01:52:36;;;;;;;0.40;0.40;;;;;;;20.16;82.98;97173.81;29396;235;63005;-89
2023/08/23 01:53:09;;;;;;;0.40;0.40;;;;;;;20.16;83.58;97178.53;29396;266;63009;-91
2023/08/23 01:53:40;;;;;;;0.40;0.40;;;;;;;20.14;83.51;97173.34;29396;268;63004;-91
2023/08/23 01:54:13;;;;;;;0.40;0.40;;;;;;;20.12;84.20;97180.37;29396;273;63009;-90
2023/08/23 01:54:44;;;;;;;0.40;0.40;;;;;;;20.10;83.82;97177.19;29395;204;64023;-92
2023/08/23 01:55:20;;;;;;;0.30;0.30;;;;;;;20.07;83.28;97173.97;29396;214;63009;-91
2023/08/23 01:55:55;;;;;;;0.30;0.30;;;;;;;20.06;83.79;97171.56;29396;259;63004;-91
2023/08/23 01:56:26;;;;;;;0.40;0.40;;;;;;;20.07;83.48;97173.97;29397;241;63008;-92
2023/08/23 01:57:00;;;;;;;0.40;0.40;;;;;;;20.06;83.07;97175.13;29397;227;63005;-90
2023/08/23 01:57:31;;;;;;;0.30;0.30;;;;;;;20.05;82.56;97175.47;29396;218;63009;-88
2023/08/23 01:58:05;;;;;;;0.30;0.30;;;;;;;20.03;83.26;97177.75;29397;252;63005;-91
2023/08/23 01:58:37;;;;;;;0.40;0.40;;;;;;;19.98;83.75;97170.53;29397;253;63009;-91
2023/08/23 01:59:08;;;;;;;0.40;0.40;;;;;;;20.01;83.59;97178.09;29394;249;64009;-93
2023/08/23 01:59:39;;;;;;;0.40;0.40;;;;;;;20.01;83.41;97172.59;29397;214;63009;-91
2023/08/23 02:00:13;;;;;;;0.40;0.40;;;;;;;20.03;83.15;97173.06;29397;217;63005;-91
2023/08/23 02:00:47;;;;;;;0.40;0.40;;;;;;;20.06;82.82;97177.06;29395;197;63017;-91
2023/08/23 02:01:20;;;;;;;0.40;0.40;;;;;;;20.04;83.29;97174.66;29395;274;63004;-91
2023/08/23 02:01:51;;;;;;;0.30;0.30;;;;;;;20.04;82.98;97173.84;29396;262;63009;-92
2023/08/23 02:02:24;;;;;;;0.30;0.30;;;;;;;20.04;82.89;97173.84;29395;225;63007;-92
2023/08/23 02:02:56;;;;;;;0.30;0.30;;;;;;;20.05;82.68;97170.75;29395;254;63008;-91
2023/08/23 02:03:29;;;;;;;0.30;0.30;;;;;;;20.05;82.46;97173.50;29393;197;64008;-92
2023/08/23 02:04:00;;;;;;;0.30;0.30;;;;;;;20.06;82.59;97177.88;29395;222;63009;-90
2023/08/23 02:04:35;;;;;;;0.40;0.40;;;;;;;20.08;82.10;97172.81;29393;206;64009;-90
2023/08/23 02:05:08;;;;;;;0.40;0.40;;;;;;;20.07;82.50;97173.97;29395;248;63009;-89
2023/08/23 02:05:44;;;;;;;0.40;0.40;;;;;;;20.08;82.74;97170.06;29395;270;63005;-90
2023/08/23 02:06:15;;;;;;;0.40;0.40;;;;;;;20.08;82.79;97177.53;29395;199;63009;-89
2023/08/23 02:06:46;;;;;;;0.30;0.30;;;;;;;20.08;82.72;97181.09;29395;221;63005;-90
2023/08/23 02:07:17;;;;;;;0.40;0.40;;;;;;;20.08;82.72;97175.56;29395;297;63009;-91
2023/08/23 02:07:49;;;;;;;0.40;0.40;;;;;;;20.09;82.91;97170.88;29393;197;64009;-92
2023/08/23 02:08:20;;;;;;;0.40;0.40;;;;;;;20.08;82.56;97164.56;29395;251;63009;-91
2023/08/23 02:08:51;;;;;;;0.40;0.40;;;;;;;20.10;83.05;97174.44;29395;212;63004;-91
2023/08/23 02:09:22;;;;;;;0.40;0.40;;;;;;;20.09;83.08;97176.38;29395;203;63009;-92
2023/08/23 02:09:55;;;;;;;0.30;0.30;;;;;;;20.09;83.37;97173.63;29393;212;64009;-91
2023/08/23 02:10:27;;;;;;;0.30;0.30;;;;;;;20.09;83.43;97176.38;29395;220;63008;-91
2023/08/23 02:10:58;;;;;;;0.30;0.30;;;;;;;20.08;83.51;97175.56;29395;206;63004;-91
2023/08/23 02:11:32;;;;;;;0.30;0.30;;;;;;;20.08;83.28;97175.56;29395;198;63005;-91
2023/08/23 02:12:07;;;;;;;0.30;0.30;;;;;;;20.07;83.08;97170.41;29393;210;64009;-91
2023/08/23 02:12:40;;;;;;;0.30;0.30;;;;;;;20.06;82.98;97171.56;29395;268;63018;-91
2023/08/23 02:13:12;;;;;;;0.30;0.30;;;;;;;20.05;83.01;97170.75;29395;212;63005;-92
2023/08/23 02:13:43;;;;;;;0.30;0.30;;;;;;;20.05;82.96;97170.75;29395;247;63009;-91
2023/08/23 02:14:14;;;;;;;0.32;0.32;;;;;;;20.05;83.93;97170.75;29395;206;63005;-91
2023/08/23 02:14:46;;;;;;;0.30;0.30;;;;;;;20.05;83.29;97164.44;29395;264;63009;-90
2023/08/23 02:15:17;;;;;;;0.30;0.30;;;;;;;20.04;83.25;97168.34;29395;216;63005;-91
2023/08/23 02:15:48;;;;;;;0.30;0.30;;;;;;;20.04;83.23;97169.16;29393;218;64033;-92
2023/08/23 02:16:21;;;;;;;0.30;0.30;;;;;;;20.05;83.15;97165.25;29395;226;63004;-92
2023/08/23 02:16:54;;;;;;;0.40;0.40;;;;;;;20.06;83.31;97166.84;29395;202;63009;-90
2023/08/23 02:17:25;;;;;;;0.30;0.30;;;;;;;20.05;83.04;97170.75;29393;268;64009;-91
2023/08/23 02:17:56;;;;;;;0.30;0.30;;;;;;;20.03;83.34;97170.31;29395;215;63008;-91
2023/08/23 02:18:28;;;;;;;0.30;0.30;;;;;;;20.03;83.75;97166.75;29395;275;63004;-90
2023/08/23 02:18:59;;;;;;;0.30;0.30;;;;;;;20.03;83.39;97167.56;29395;216;63009;-92
2023/08/23 02:19:30;;;;;;;0.30;0.30;;;;;;;20.03;83.70;97167.56;29395;220;63005;-91
2023/08/23 02:20:03;;;;;;;0.40;0.40;;;;;;;20.03;83.46;97173.06;29393;306;64014;-91
2023/08/23 02:20:35;;;;;;;0.30;0.30;;;;;;;20.00;83.52;97173.75;29395;242;63005;-91
2023/08/23 02:21:06;;;;;;;0.30;0.30;;;;;;;19.99;83.15;97174.09;29395;199;63009;-91
2023/08/23 02:21:37;;;;;;;0.30;0.30;;;;;;;19.96;83.89;97172.84;29395;196;63005;-91
2023/08/23 02:22:08;;;;;;;0.30;0.30;;;;;;;19.97;83.72;97176.41;29393;243;64013;-88
2023/08/23 02:22:42;;;;;;;0.30;0.30;;;;;;;19.97;83.77;97173.63;29395;205;63005;-93
2023/08/23 02:23:17;;;;;;;0.30;0.30;;;;;;;19.97;83.48;97168.94;29393;254;64013;-90
2023/08/23 02:23:51;;;;;;;0.30;0.30;;;;;;;19.97;83.25;97173.63;29393;212;64009;-92
2023/08/23 02:24:24;;;;;;;0.40;0.40;;;;;;;19.96;83.74;97174.78;29395;208;63009;-91
2023/08/23 02:24:55;;;;;;;0.30;0.30;;;;;;;19.94;83.82;97175.13;29395;285;63004;-90
2023/08/23 02:25:26;;;;;;;0.30;0.30;;;;;;;19.94;83.69;97172.38;29395;242;63009;-90
2023/08/23 02:25:57;;;;;;;0.30;0.30;;;;;;;19.96;83.71;97172.84;29393;311;64008;-89
2023/08/23 02:26:29;;;;;;;0.30;0.30;;;;;;;19.94;84.45;97175.13;29395;242;63009;-89
2023/08/23 02:27:03;;;;;;;0.30;0.30;;;;;;;19.94;84.31;97175.13;29395;220;63005;-91
2023/08/23 02:27:34;;;;;;;0.30;0.30;;;;;;;19.93;84.36;97172.72;29393;204;64014;-92
2023/08/23 02:28:07;;;;;;;0.35;0.35;;;;;;;19.91;84.23;97170.31;29395;202;63005;-89
2023/08/23 02:28:38;;;;;;;0.45;0.45;;;;;;;19.89;83.67;97172.63;29395;246;63009;-91
2023/08/23 02:29:12;;;;;;;0.40;0.40;;;;;;;19.89;84.43;97175.38;29395;295;63005;-92
2023/08/23 02:29:45;;;;;;;0.40;0.40;;;;;;;19.88;84.74;97168.25;29394;197;64009;-92
2023/08/23 02:30:19;;;;;;;0.30;0.30;;;;;;;19.88;84.54;97171.00;29395;230;63005;-89
2023/08/23 02:30:50;;;;;;;0.40;0.40;;;;;;;19.89;84.30;97167.09;29394;203;63009;-91
2023/08/23 02:31:21;;;;;;;0.30;0.30;;;;;;;19.89;84.80;97172.63;29393;289;64009;-92
2023/08/23 02:31:54;;;;;;;0.40;0.40;;;;;;;19.89;84.73;97171.81;29395;199;63015;-91
2023/08/23 02:32:26;;;;;;;0.30;0.30;;;;;;;19.88;84.41;97165.50;29395;287;63004;-91
2023/08/23 02:32:58;;;;;;;0.40;0.40;;;;;;;19.86;84.21;97165.03;29395;242;63009;-91
2023/08/23 02:33:31;;;;;;;0.40;0.40;;;;;;;19.87;83.94;97158.37;29395;245;63004;-91
2023/08/23 02:34:03;;;;;;;0.30;0.30;;;;;;;19.89;83.92;97164.34;29395;260;63009;-89
2023/08/23 02:34:37;;;;;;;0.40;0.40;;;;;;;19.89;84.26;97161.59;29395;258;63005;-92
2023/08/23 02:35:10;;;;;;;0.40;0.40;;;;;;;19.88;83.68;97165.50;29395;276;63009;-91
2023/08/23 02:35:44;;;;;;;0.40;0.40;;;;;;;19.88;84.35;97164.69;29395;216;63005;-90
2023/08/23 02:36:15;;;;;;;0.40;0.40;;;;;;;19.86;84.28;97159.53;29395;275;63009;-89
2023/08/23 02:36:46;;;;;;;0.40;0.40;;;;;;;19.87;84.16;97160.34;29394;249;64001;-90
2023/08/23 02:37:18;;;;;;;0.30;0.30;;;;;;;19.87;84.52;97169.41;29394;370;64013;-92
2023/08/23 02:37:49;;;;;;;0.35;0.35;;;;;;;19.88;84.38;97164.69;29395;197;63005;-90
2023/08/23 02:38:20;;;;;;;0.35;0.35;;;;;;;19.87;83.86;97166.66;29395;245;63010;-91
2023/08/23 02:38:56;;;;;;;0.40;0.40;;;;;;;19.86;84.31;97167.78;29394;220;64009;-92
2023/08/23 02:39:29;;;;;;;0.40;0.40;;;;;;;19.83;83.73;97167.69;29394;279;63009;-90
2023/08/23 02:40:00;;;;;;;0.40;0.40;;;;;;;19.81;84.21;97164.47;29395;262;63004;-91
2023/08/23 02:40:32;;;;;;;0.40;0.40;;;;;;;19.81;84.46;97164.47;29395;270;63009;-90
2023/08/23 02:41:04;;;;;;;0.40;0.40;;;;;;;19.82;84.17;97169.62;29394;237;64008;-91
2023/08/23 02:41:38;;;;;;;0.30;0.30;;;;;;;19.81;85.00;97170.78;29394;211;64014;-90
2023/08/23 02:42:10;;;;;;;0.30;0.30;;;;;;;19.79;85.16;97164.81;29395;210;63005;-93
2023/08/23 02:42:41;;;;;;;0.37;0.37;;;;;;;19.79;84.81;97158.50;29395;270;63009;-90
2023/08/23 02:43:14;;;;;;;0.35;0.35;;;;;;;19.80;84.55;97155.41;29395;274;63005;-90
2023/08/23 02:43:45;;;;;;;0.30;0.30;;;;;;;19.80;84.34;97163.66;29395;208;63009;-91
2023/08/23 02:44:17;;;;;;;0.30;0.30;;;;;;;19.80;84.99;97169.16;29395;234;63005;-90
2023/08/23 02:44:51;;;;;;;0.30;0.30;;;;;;;19.79;85.01;97164.00;29395;220;63009;-91
2023/08/23 02:45:26;;;;;;;0.37;0.37;;;;;;;19.77;85.29;97163.56;29395;196;63005;-91
2023/08/23 02:46:02;;;;;;;0.30;0.30;;;;;;;19.75;85.00;97161.16;29395;215;63009;-92